X  Close Metar Aviation Weather Data     EDDM Munich Airport
Temperature
23°C Temperature
15°C Dewpoint
61% Humidity



Wind
4 M/S
10 MPH
16 KM/H
9 KTS



330°
NNW
Current Conditions

Area Showers Area Showers
Pressure 1015.92 (hPa) - 30 (inHg)
Visibility 6 (mile) - 9.7 (km)
Airport
Airport-code EDDM

Location: Munich Airport
Distance: 30 (km)

Metar:
EDDM 171550Z AUTO 33009KT 290V010 9999 VCSH FEW///TCU 23/15 Q1016 NOSIG

Time: 17-06-2024 17:50 CEST